createdAt,value
2023-02-26T00:01:28.222Z,9.60
2023-02-26T00:03:58.167Z,8.87
2023-02-26T00:06:27.085Z,8.83
2023-02-26T00:08:55.825Z,9.33
2023-02-26T00:11:24.320Z,8.73
2023-02-26T00:13:53.099Z,9.93
2023-02-26T00:16:28.327Z,9.63
2023-02-26T00:18:57.105Z,10.30
2023-02-26T00:21:26.044Z,9.70
2023-02-26T00:23:54.333Z,9.80
2023-02-26T00:26:22.736Z,10.93
2023-02-26T00:28:51.564Z,9.27
2023-02-26T00:31:24.908Z,10.37
2023-02-26T00:33:55.589Z,12.00
2023-02-26T00:36:26.113Z,10.23
2023-02-26T00:39:02.461Z,9.63
2023-02-26T00:41:31.487Z,8.93
2023-02-26T00:44:00.228Z,10.97
2023-02-26T00:46:34.188Z,10.37
2023-02-26T00:49:05.087Z,10.37
2023-02-26T00:51:34.732Z,11.70
2023-02-26T00:54:06.393Z,10.90
2023-02-26T00:56:34.625Z,11.00
2023-02-26T00:59:03.061Z,9.83
2023-02-26T01:01:31.540Z,10.07
2023-02-26T01:04:00.778Z,8.97
2023-02-26T01:06:31.948Z,9.47
2023-02-26T01:09:03.711Z,8.63
2023-02-26T01:11:32.437Z,10.80
2023-02-26T01:14:01.154Z,9.90
2023-02-26T01:16:30.161Z,8.73
2023-02-26T01:19:01.618Z,10.80
2023-02-26T01:21:34.233Z,8.93
2023-02-26T01:24:02.585Z,10.40
2023-02-26T01:26:31.004Z,9.93
2023-02-26T01:28:59.594Z,9.67
2023-02-26T01:31:40.652Z,10.00
2023-02-26T01:34:11.231Z,10.33
2023-02-26T01:36:42.754Z,10.83
2023-02-26T01:39:15.535Z,10.03
2023-02-26T01:41:45.060Z,13.33
2023-02-26T01:44:16.681Z,10.87
2023-02-26T01:46:57.453Z,12.90
2023-02-26T01:49:26.441Z,10.93
2023-02-26T01:51:56.800Z,9.43
2023-02-26T01:54:25.887Z,12.00
2023-02-26T01:56:57.236Z,9.57
2023-02-26T01:59:25.504Z,9.40
2023-02-26T02:01:54.467Z,10.60
2023-02-26T02:04:22.748Z,9.50
2023-02-26T02:06:51.115Z,10.23
2023-02-26T02:09:20.779Z,10.97
2023-02-26T02:12:02.564Z,10.00
2023-02-26T02:14:32.996Z,9.63
2023-02-26T02:17:01.928Z,10.17
2023-02-26T02:19:44.792Z,11.33
2023-02-26T02:22:21.741Z,10.00
2023-02-26T02:24:59.350Z,9.50
2023-02-26T02:27:31.304Z,8.70
2023-02-26T02:30:11.605Z,7.97
2023-02-26T02:32:43.868Z,7.77
2023-02-26T02:35:15.468Z,10.13
2023-02-26T02:37:46.446Z,8.23
2023-02-26T02:40:16.441Z,8.83
2023-02-26T02:42:46.101Z,8.20
2023-02-26T02:45:18.137Z,8.23
2023-02-26T02:47:49.205Z,6.93
2023-02-26T02:50:20.943Z,6.57
2023-02-26T02:52:51.860Z,7.27
2023-02-26T02:55:22.463Z,8.40
2023-02-26T02:57:52.272Z,6.63
2023-02-26T03:00:21.756Z,6.77
2023-02-26T03:02:55.217Z,6.57
2023-02-26T03:05:23.485Z,7.80
2023-02-26T03:07:57.231Z,7.13
2023-02-26T03:10:25.615Z,7.27
2023-02-26T03:12:54.046Z,7.00
2023-02-26T03:15:28.199Z,6.50
2023-02-26T03:18:01.182Z,5.83
2023-02-26T03:20:31.142Z,8.53
2023-02-26T03:23:06.254Z,7.10
2023-02-26T03:25:40.485Z,8.53
2023-02-26T03:28:10.562Z,6.13
2023-02-26T03:30:40.696Z,6.90
2023-02-26T03:33:13.761Z,7.37
2023-02-26T03:35:46.583Z,5.37
2023-02-26T03:38:18.302Z,6.27
2023-02-26T03:40:49.896Z,5.97
2023-02-26T03:43:19.646Z,8.00
2023-02-26T03:45:49.135Z,6.83
2023-02-26T03:48:20.807Z,5.73
2023-02-26T03:50:50.890Z,6.80
2023-02-26T03:53:20.618Z,5.60
2023-02-26T03:55:50.686Z,7.00
2023-02-26T03:58:18.930Z,6.97
2023-02-26T04:00:50.310Z,7.23
2023-02-26T04:03:22.228Z,8.07
2023-02-26T04:05:50.775Z,8.37
2023-02-26T04:08:19.008Z,8.27
2023-02-26T04:10:49.200Z,8.07
2023-02-26T04:13:17.558Z,8.43
2023-02-26T04:15:46.080Z,7.67
2023-02-26T04:18:14.307Z,7.73
2023-02-26T04:20:43.931Z,11.20
2023-02-26T04:23:12.202Z,8.30
2023-02-26T04:25:40.593Z,7.97
2023-02-26T04:28:09.234Z,10.77
2023-02-26T04:30:37.551Z,10.07
2023-02-26T04:33:05.893Z,6.83
2023-02-26T04:35:34.624Z,7.27
2023-02-26T04:38:05.596Z,6.80
2023-02-26T04:40:33.947Z,6.07
2023-02-26T04:43:02.203Z,8.90
2023-02-26T04:45:30.478Z,5.80
2023-02-26T04:47:58.706Z,8.10
2023-02-26T04:50:26.996Z,8.33
2023-02-26T04:52:55.297Z,7.10
2023-02-26T04:55:25.038Z,9.47
2023-02-26T04:57:53.369Z,6.23
2023-02-26T05:00:22.259Z,8.23
2023-02-26T05:02:50.485Z,7.80
2023-02-26T05:05:18.881Z,13.30
2023-02-26T05:07:47.137Z,9.57
2023-02-26T05:10:15.472Z,7.37
2023-02-26T05:12:45.116Z,6.77
2023-02-26T05:15:13.472Z,8.83
2023-02-26T05:17:41.761Z,8.53
2023-02-26T05:20:11.482Z,8.87
2023-02-26T05:22:39.843Z,7.77
2023-02-26T05:25:08.633Z,8.23
2023-02-26T05:27:36.918Z,9.10
2023-02-26T05:30:07.607Z,9.10
2023-02-26T05:32:35.836Z,8.90
2023-02-26T05:35:04.106Z,7.87
2023-02-26T05:37:32.366Z,11.63
2023-02-26T05:40:00.605Z,7.37
2023-02-26T05:42:28.935Z,8.20
2023-02-26T05:44:57.839Z,7.33
2023-02-26T05:47:27.561Z,9.13
2023-02-26T05:49:55.811Z,10.33
2023-02-26T05:52:24.085Z,9.27
2023-02-26T05:54:52.329Z,9.90
2023-02-26T05:57:20.589Z,9.57
2023-02-26T05:59:48.864Z,9.37
2023-02-26T06:02:17.170Z,8.30
2023-02-26T06:04:46.844Z,9.23
2023-02-26T06:07:15.313Z,7.23
2023-02-26T06:09:43.543Z,8.03
2023-02-26T06:12:11.829Z,8.93
2023-02-26T06:14:40.130Z,13.47
2023-02-26T06:17:08.589Z,11.80
2023-02-26T06:19:36.916Z,13.23
2023-02-26T06:22:06.552Z,12.37
2023-02-26T06:24:35.147Z,14.63
2023-02-26T06:27:03.502Z,8.10
2023-02-26T06:29:31.736Z,12.00
2023-02-26T06:32:00.077Z,12.93
2023-02-26T06:34:28.435Z,11.33
2023-02-26T06:36:56.732Z,9.90
2023-02-26T06:39:26.344Z,12.37
2023-02-26T06:41:54.645Z,13.50
2023-02-26T06:44:22.880Z,15.20
2023-02-26T06:46:51.155Z,10.33
2023-02-26T06:49:19.595Z,12.27
2023-02-26T06:51:47.843Z,11.33
2023-02-26T06:54:16.207Z,10.17
2023-02-26T06:56:45.847Z,13.07
2023-02-26T06:59:15.394Z,13.27
2023-02-26T07:01:43.705Z,14.70
2023-02-26T07:04:12.061Z,18.47
2023-02-26T07:06:40.797Z,17.60
2023-02-26T07:09:09.309Z,19.63
2023-02-26T07:11:37.547Z,10.67
2023-02-26T07:14:07.278Z,12.60
2023-02-26T07:16:35.589Z,13.77
2023-02-26T07:19:04.015Z,14.60
2023-02-26T07:21:32.281Z,13.60
2023-02-26T07:24:00.560Z,13.40
2023-02-26T07:26:28.832Z,14.13
2023-02-26T07:28:57.113Z,19.50
2023-02-26T07:31:26.959Z,12.23
2023-02-26T07:33:55.288Z,12.70
2023-02-26T07:36:23.741Z,12.07
2023-02-26T07:38:52.077Z,9.63
2023-02-26T07:41:20.333Z,9.67
2023-02-26T07:43:48.607Z,10.63
2023-02-26T07:46:16.941Z,11.40
2023-02-26T07:48:46.613Z,11.47
2023-02-26T07:51:15.077Z,12.23
2023-02-26T07:53:43.333Z,9.97
2023-02-26T07:56:11.674Z,10.77
2023-02-26T07:58:39.922Z,12.63
2023-02-26T08:01:08.246Z,13.47
2023-02-26T08:03:36.650Z,12.10
2023-02-26T08:06:08.540Z,15.43
2023-02-26T08:08:36.851Z,13.53
2023-02-26T08:11:05.359Z,14.47
2023-02-26T08:13:33.977Z,10.30
2023-02-26T08:16:02.256Z,11.77
2023-02-26T08:18:30.532Z,11.20
2023-02-26T08:20:58.962Z,10.00
2023-02-26T08:23:28.669Z,9.10
2023-02-26T08:26:02.443Z,11.70
2023-02-26T08:28:30.778Z,12.40
2023-02-26T08:30:59.238Z,9.63
2023-02-26T08:33:27.725Z,10.27
2023-02-26T08:35:59.234Z,9.50
2023-02-26T08:38:28.973Z,6.83
2023-02-26T08:40:57.364Z,7.07
2023-02-26T08:43:25.969Z,8.23
2023-02-26T08:45:54.292Z,8.33
2023-02-26T08:48:22.666Z,8.27
2023-02-26T08:50:51.266Z,9.90
2023-02-26T08:53:19.531Z,14.43
2023-02-26T08:55:50.774Z,15.03
2023-02-26T08:58:19.103Z,11.30
2023-02-26T09:00:47.371Z,10.93
2023-02-26T09:03:15.833Z,9.17
2023-02-26T09:05:44.248Z,11.00
2023-02-26T09:08:15.482Z,9.17
2023-02-26T09:10:43.824Z,8.23
2023-02-26T09:13:13.483Z,8.53
2023-02-26T09:15:41.770Z,8.20
2023-02-26T09:18:15.545Z,7.67
2023-02-26T09:20:44.195Z,7.93
2023-02-26T09:23:12.706Z,8.23
2023-02-26T09:25:41.150Z,8.90
2023-02-26T09:28:09.606Z,8.17
2023-02-26T09:30:39.582Z,8.03
2023-02-26T09:33:08.247Z,6.07
2023-02-26T09:35:36.747Z,6.10
2023-02-26T09:38:05.156Z,5.20
2023-02-26T09:40:39.442Z,6.23
2023-02-26T09:43:16.168Z,4.53
2023-02-26T09:45:45.835Z,11.63
2023-02-26T09:48:15.477Z,6.17
2023-02-26T09:50:45.414Z,5.17
2023-02-26T09:53:16.885Z,5.83
2023-02-26T09:55:47.732Z,8.47
2023-02-26T09:58:19.536Z,5.77
2023-02-26T10:00:54.628Z,9.60
2023-02-26T10:03:28.602Z,4.00
2023-02-26T10:06:22.464Z,6.40
2023-02-26T10:09:08.125Z,3.60
2023-02-26T10:11:38.451Z,5.53
2023-02-26T10:14:08.778Z,4.70
2023-02-26T10:16:41.016Z,4.77
2023-02-26T10:19:12.596Z,5.43
2023-02-26T10:21:42.839Z,5.60
2023-02-26T10:24:15.246Z,3.30
2023-02-26T10:26:44.988Z,3.03
2023-02-26T10:29:18.725Z,6.00
2023-02-26T10:31:59.381Z,6.83
2023-02-26T10:34:30.618Z,6.53
2023-02-26T10:37:06.777Z,5.63
2023-02-26T10:39:39.086Z,4.97
2023-02-26T10:42:10.912Z,6.97
2023-02-26T10:44:42.012Z,7.47
2023-02-26T10:47:15.230Z,6.13
2023-02-26T10:49:50.235Z,6.90
2023-02-26T10:52:19.365Z,7.53
2023-02-26T10:55:05.758Z,4.90
2023-02-26T10:57:35.894Z,5.70
2023-02-26T11:00:05.306Z,5.60
2023-02-26T11:02:39.614Z,7.90
2023-02-26T11:05:11.566Z,8.10
2023-02-26T11:07:40.252Z,8.73
2023-02-26T11:10:14.861Z,7.37
2023-02-26T11:12:43.206Z,6.07
2023-02-26T11:15:15.126Z,5.53
2023-02-26T11:17:44.817Z,5.70
2023-02-26T11:20:19.148Z,4.87
2023-02-26T11:22:49.140Z,6.07
2023-02-26T11:25:19.420Z,4.43
2023-02-26T11:27:49.261Z,4.50
2023-02-26T11:30:18.690Z,3.57
2023-02-26T11:32:51.894Z,4.13
2023-02-26T11:35:21.606Z,3.70
2023-02-26T11:37:50.740Z,3.97
2023-02-26T11:40:23.200Z,5.37
2023-02-26T11:42:54.136Z,4.03
2023-02-26T11:45:22.425Z,7.60
2023-02-26T11:48:02.305Z,3.30
2023-02-26T11:50:30.963Z,5.03
2023-02-26T11:53:07.839Z,5.67
2023-02-26T11:55:40.124Z,5.30
2023-02-26T11:58:18.533Z,7.20
2023-02-26T12:00:47.478Z,7.43
2023-02-26T12:03:20.057Z,8.00
2023-02-26T12:05:48.443Z,7.77
2023-02-26T12:08:20.084Z,7.73
2023-02-26T12:10:55.667Z,7.07
2023-02-26T12:13:26.556Z,8.23
2023-02-26T12:15:57.997Z,7.50
2023-02-26T12:18:59.134Z,8.67
2023-02-26T12:21:38.187Z,6.47
2023-02-26T12:24:16.343Z,6.63
2023-02-26T12:26:46.944Z,7.10
2023-02-26T12:29:34.541Z,6.97
2023-02-26T12:32:36.528Z,5.47
2023-02-26T12:35:24.523Z,4.77
2023-02-26T12:37:58.415Z,9.17
2023-02-26T12:40:51.830Z,6.27
2023-02-26T12:43:24.631Z,7.77
2023-02-26T12:45:55.903Z,10.30
2023-02-26T12:48:45.310Z,8.07
2023-02-26T12:51:20.917Z,9.17
2023-02-26T12:54:19.672Z,8.73
2023-02-26T12:56:56.949Z,9.10
2023-02-26T12:59:44.920Z,8.17
2023-02-26T13:02:51.690Z,8.17
2023-02-26T13:05:25.737Z,9.37
2023-02-26T13:08:09.367Z,6.97
2023-02-26T13:11:01.471Z,8.03
2023-02-26T13:13:48.325Z,8.07
2023-02-26T13:16:22.810Z,7.03
2023-02-26T13:18:54.465Z,5.27
2023-02-26T13:21:25.169Z,4.83
2023-02-26T13:23:56.045Z,6.07
2023-02-26T13:26:24.697Z,7.73
2023-02-26T13:28:56.233Z,8.20
2023-02-26T13:31:27.797Z,11.53
2023-02-26T13:33:56.797Z,8.87
2023-02-26T13:36:26.309Z,9.30
2023-02-26T13:39:05.705Z,9.53
2023-02-26T13:41:40.685Z,8.13
2023-02-26T13:44:17.233Z,6.03
2023-02-26T13:46:53.742Z,7.67
2023-02-26T13:49:24.006Z,11.23
2023-02-26T13:51:54.250Z,10.23
2023-02-26T13:54:42.801Z,8.77
2023-02-26T13:57:25.889Z,9.17
2023-02-26T13:59:56.025Z,5.00
2023-02-26T14:02:49.812Z,5.20
2023-02-26T14:05:52.467Z,7.60
2023-02-26T14:08:47.084Z,6.93
2023-02-26T14:11:42.475Z,6.60
2023-02-26T14:14:34.724Z,10.00
2023-02-26T14:17:38.852Z,7.33
2023-02-26T14:20:25.072Z,7.93
2023-02-26T14:23:12.968Z,9.80
2023-02-26T14:25:41.961Z,9.33
2023-02-26T14:28:34.679Z,10.83
2023-02-26T14:31:17.638Z,10.03
2023-02-26T14:33:47.827Z,9.97
2023-02-26T14:36:22.228Z,9.77
2023-02-26T14:38:50.489Z,9.93
2023-02-26T14:41:26.987Z,10.63
2023-02-26T14:44:00.248Z,10.77
2023-02-26T14:46:30.024Z,8.40
2023-02-26T14:48:58.833Z,10.43
2023-02-26T14:51:36.541Z,8.47
2023-02-26T14:54:12.230Z,4.93
2023-02-26T14:56:50.482Z,6.47
2023-02-26T14:59:40.483Z,7.57
2023-02-26T15:02:19.624Z,7.97
2023-02-26T15:05:14.530Z,7.03
2023-02-26T15:08:01.605Z,7.17
2023-02-26T15:10:40.187Z,8.73
2023-02-26T15:13:18.507Z,7.20
2023-02-26T15:15:51.803Z,9.03
2023-02-26T15:18:38.490Z,7.57
2023-02-26T15:21:11.305Z,7.23
2023-02-26T15:23:43.557Z,11.67
2023-02-26T15:26:17.858Z,9.20
2023-02-26T15:28:46.147Z,7.73
2023-02-26T15:31:14.459Z,9.27
2023-02-26T15:33:45.520Z,8.10
2023-02-26T15:36:14.943Z,9.40
2023-02-26T15:38:44.634Z,8.97
2023-02-26T15:41:12.935Z,8.27
2023-02-26T15:43:42.406Z,9.47
2023-02-26T15:46:10.724Z,8.57
2023-02-26T15:48:42.332Z,8.97
2023-02-26T15:51:13.415Z,9.30
2023-02-26T15:53:43.808Z,9.03
2023-02-26T15:56:13.766Z,12.10
2023-02-26T15:58:45.095Z,9.40
2023-02-26T16:01:17.642Z,10.37
2023-02-26T16:03:45.971Z,10.67
2023-02-26T16:06:18.789Z,11.77
2023-02-26T16:08:47.042Z,11.63
2023-02-26T16:11:15.249Z,10.80
2023-02-26T16:13:43.949Z,12.50
2023-02-26T16:16:14.660Z,11.27
2023-02-26T16:18:42.947Z,14.20
2023-02-26T16:21:11.624Z,10.60
2023-02-26T16:23:44.546Z,15.00
2023-02-26T16:26:16.977Z,14.27
2023-02-26T16:28:47.157Z,12.33
2023-02-26T16:31:18.750Z,17.23
2023-02-26T16:33:54.713Z,25.67
2023-02-26T16:36:26.102Z,25.87
2023-02-26T16:39:01.316Z,11.97
2023-02-26T16:41:31.240Z,12.33
2023-02-26T16:44:01.427Z,10.73
2023-02-26T16:46:38.523Z,11.67
2023-02-26T16:49:07.708Z,12.50
2023-02-26T16:51:37.668Z,12.33
2023-02-26T16:54:10.177Z,13.83
2023-02-26T16:56:41.069Z,15.67
2023-02-26T16:59:13.066Z,14.07
2023-02-26T17:01:46.224Z,14.07
2023-02-26T17:04:16.315Z,16.47
2023-02-26T17:06:44.572Z,16.93
2023-02-26T17:09:27.601Z,15.50
2023-02-26T17:12:05.609Z,14.60
2023-02-26T17:14:34.504Z,15.57
2023-02-26T17:17:03.572Z,14.70
2023-02-26T17:19:31.823Z,17.23
2023-02-26T17:22:00.098Z,14.33
2023-02-26T17:24:32.590Z,16.07
2023-02-26T17:27:01.269Z,17.23
2023-02-26T17:29:37.136Z,18.83
2023-02-26T17:32:06.120Z,16.23
2023-02-26T17:34:34.701Z,18.10
2023-02-26T17:37:05.951Z,18.83
2023-02-26T17:39:35.628Z,19.37
2023-02-26T17:42:03.874Z,15.57
2023-02-26T17:44:32.149Z,15.47
2023-02-26T17:47:00.398Z,15.53
2023-02-26T17:49:28.703Z,17.93
2023-02-26T17:51:57.097Z,18.27
2023-02-26T17:54:25.627Z,17.00
2023-02-26T17:56:55.264Z,16.53
2023-02-26T17:59:23.638Z,17.57
2023-02-26T18:01:53.540Z,15.87
2023-02-26T18:04:22.647Z,15.40
2023-02-26T18:06:51.045Z,14.37
2023-02-26T18:09:19.377Z,20.27
2023-02-26T18:11:47.679Z,15.73
2023-02-26T18:14:17.409Z,20.40
2023-02-26T18:16:46.846Z,16.20
2023-02-26T18:19:15.347Z,16.07
2023-02-26T18:21:43.750Z,13.10
2023-02-26T18:24:11.976Z,13.13
2023-02-26T18:26:40.284Z,16.40
2023-02-26T18:29:08.568Z,15.73
2023-02-26T18:31:38.744Z,13.77
2023-02-26T18:34:07.336Z,13.97
2023-02-26T18:36:37.869Z,18.43
2023-02-26T18:39:07.716Z,16.03
2023-02-26T18:41:35.963Z,15.57
2023-02-26T18:44:04.496Z,17.90
2023-02-26T18:46:34.968Z,15.40
2023-02-26T18:49:04.792Z,14.57
2023-02-26T18:51:33.252Z,15.07
2023-02-26T18:54:01.499Z,20.27
2023-02-26T18:56:29.852Z,20.30
2023-02-26T18:59:01.240Z,16.57
2023-02-26T19:01:30.336Z,17.90
2023-02-26T19:03:58.865Z,18.63
2023-02-26T19:06:28.642Z,21.13
2023-02-26T19:08:56.941Z,20.67
2023-02-26T19:11:25.571Z,17.77
2023-02-26T19:13:54.138Z,19.37
2023-02-26T19:16:23.008Z,17.83
2023-02-26T19:18:51.432Z,20.67
2023-02-26T19:21:19.674Z,20.97
2023-02-26T19:23:49.380Z,24.83
2023-02-26T19:26:17.663Z,25.10
2023-02-26T19:28:46.230Z,15.13
2023-02-26T19:31:16.552Z,19.13
2023-02-26T19:33:45.047Z,19.93
2023-02-26T19:36:13.299Z,20.23
2023-02-26T19:38:41.547Z,18.63
2023-02-26T19:41:11.184Z,18.53
2023-02-26T19:43:39.472Z,20.63
2023-02-26T19:46:07.782Z,18.67
2023-02-26T19:48:36.041Z,29.77
2023-02-26T19:51:04.366Z,27.03
2023-02-26T19:53:34.028Z,30.87
2023-02-26T19:56:02.508Z,33.27
2023-02-26T19:58:32.990Z,29.53
2023-02-26T20:01:01.868Z,29.30
2023-02-26T20:03:30.136Z,25.07
2023-02-26T20:05:58.546Z,29.53
2023-02-26T20:08:29.443Z,26.63
2023-02-26T20:10:58.442Z,23.30
2023-02-26T20:13:29.849Z,26.27
2023-02-26T20:15:59.655Z,29.00
2023-02-26T20:18:28.879Z,25.70
2023-02-26T20:20:57.175Z,27.33
2023-02-26T20:23:25.640Z,31.43
2023-02-26T20:25:56.094Z,26.03
2023-02-26T20:28:24.344Z,28.53
2023-02-26T20:30:52.709Z,31.13
2023-02-26T20:33:22.494Z,31.93
2023-02-26T20:35:50.903Z,29.97
2023-02-26T20:38:20.055Z,31.37
2023-02-26T20:40:48.476Z,35.57
2023-02-26T20:43:17.055Z,39.77
2023-02-26T20:45:45.263Z,39.87
2023-02-26T20:48:13.504Z,40.50
2023-02-26T20:50:43.162Z,42.93
2023-02-26T20:53:11.538Z,43.00
2023-02-26T20:55:39.821Z,45.60
2023-02-26T20:58:08.068Z,35.23
2023-02-26T21:00:36.422Z,38.77
2023-02-26T21:03:05.125Z,37.00
2023-02-26T21:05:34.477Z,32.20
2023-02-26T21:08:04.344Z,29.83
2023-02-26T21:10:32.817Z,32.70
2023-02-26T21:13:01.249Z,26.47
2023-02-26T21:15:29.490Z,30.60
2023-02-26T21:17:58.367Z,30.03
2023-02-26T21:20:26.999Z,25.97
2023-02-26T21:22:55.253Z,33.43
2023-02-26T21:25:24.918Z,28.70
2023-02-26T21:27:53.178Z,27.10
2023-02-26T21:30:23.309Z,30.83
2023-02-26T21:32:51.847Z,31.57
2023-02-26T21:35:20.217Z,30.93
2023-02-26T21:37:48.473Z,26.53
2023-02-26T21:40:17.076Z,25.00
2023-02-26T21:42:46.703Z,26.97
2023-02-26T21:45:14.913Z,25.20
2023-02-26T21:47:43.208Z,27.00
2023-02-26T21:50:12.493Z,19.67
2023-02-26T21:52:40.798Z,25.73
2023-02-26T21:55:10.188Z,23.23
2023-02-26T21:57:38.718Z,22.70
2023-02-26T22:00:11.355Z,17.77
2023-02-26T22:02:39.826Z,23.60
2023-02-26T22:05:09.389Z,19.13
2023-02-26T22:07:37.778Z,17.80
2023-02-26T22:10:06.723Z,21.53
2023-02-26T22:12:35.073Z,24.70
2023-02-26T22:15:03.325Z,17.50
2023-02-26T22:17:33.026Z,20.37
2023-02-26T22:20:01.262Z,16.93
2023-02-26T22:22:31.608Z,19.37
2023-02-26T22:25:00.048Z,16.30
2023-02-26T22:27:28.269Z,17.33
2023-02-26T22:29:56.655Z,18.93
2023-02-26T22:32:25.005Z,16.00
2023-02-26T22:34:55.958Z,21.23
2023-02-26T22:37:24.210Z,17.70
2023-02-26T22:39:52.451Z,21.27
2023-02-26T22:42:20.691Z,15.20
2023-02-26T22:44:49.018Z,21.70
2023-02-26T22:47:17.538Z,21.10
2023-02-26T22:49:46.444Z,16.30
2023-02-26T22:52:16.098Z,17.20
2023-02-26T22:54:46.501Z,16.37
2023-02-26T22:57:14.867Z,13.00
2023-02-26T22:59:43.164Z,14.33
2023-02-26T23:02:11.420Z,16.57
2023-02-26T23:04:39.850Z,14.93
2023-02-26T23:07:08.212Z,14.90
2023-02-26T23:09:37.969Z,13.80
2023-02-26T23:12:06.937Z,15.80
2023-02-26T23:14:35.223Z,15.13
2023-02-26T23:17:04.138Z,18.40
2023-02-26T23:19:32.458Z,14.27
2023-02-26T23:22:00.689Z,13.43
2023-02-26T23:24:28.904Z,14.87
2023-02-26T23:26:58.520Z,14.97
2023-02-26T23:29:27.290Z,13.50
2023-02-26T23:31:55.661Z,15.43
2023-02-26T23:34:24.045Z,15.80
2023-02-26T23:36:52.265Z,15.73
2023-02-26T23:39:20.476Z,14.90
2023-02-26T23:41:48.729Z,14.53
2023-02-26T23:44:18.391Z,13.77
2023-02-26T23:46:46.662Z,15.87
2023-02-26T23:49:16.063Z,14.97
2023-02-26T23:51:44.333Z,14.63
2023-02-26T23:54:12.582Z,17.73
2023-02-26T23:56:40.840Z,16.57
2023-02-26T23:59:09.148Z,13.80
